Time;durP1;ratioP1;P1;durP2;ratioP2;P2;SDS_P1;SDS_P2;PMS_P1;PMS_P2;Temp;Humidity;BMP_temperature;BMP_pressure;BME280_temperature;BME280_humidity;BME280_pressure;Samples;Min_cycle;Max_cycle;Signal;HPM_P1;HPM_P2
2022/05/14 00:00:20;;;;;;;9.53;4.00;;;;;;;10.85;51.83;100589.02;1956894;91;32344;-74
2022/05/14 00:03:25;;;;;;;8.00;3.55;;;;;;;10.81;51.95;100590.13;1957140;91;29715;-72
2022/05/14 00:06:30;;;;;;;7.47;3.50;;;;;;;10.76;52.38;100595.66;1957165;91;29372;-72
2022/05/14 00:09:32;;;;;;;6.55;3.40;;;;;;;10.71;52.28;100592.35;1957475;91;27848;-77
2022/05/14 00:15:55;;;;;;;11.70;3.70;;;;;;;10.63;52.44;100597.17;1957072;91;31955;-68
2022/05/14 00:18:59;;;;;;;8.73;3.70;;;;;;;10.58;52.84;100592.02;1956961;91;33637;-72
2022/05/14 00:22:01;;;;;;;7.47;4.08;;;;;;;10.53;52.83;100591.84;1956886;88;29395;-71
2022/05/14 00:25:04;;;;;;;7.42;3.67;;;;;;;10.49;52.96;100591.97;1957180;91;27689;-72
2022/05/14 00:28:07;;;;;;;8.55;4.90;;;;;;;10.45;53.07;100598.88;1957121;91;29528;-71
2022/05/14 00:31:09;;;;;;;11.60;4.30;;;;;;;10.41;53.24;100593.25;1957127;91;31057;-72
2022/05/14 00:34:11;;;;;;;6.83;4.12;;;;;;;10.37;53.47;100591.15;1957080;91;33786;-71
2022/05/14 00:37:13;;;;;;;12.07;4.65;;;;;;;10.33;53.65;100597.57;1957141;91;29724;-71
2022/05/14 00:40:26;;;;;;;9.53;4.25;;;;;;;10.29;53.71;100594.62;1957162;91;28113;-73
2022/05/14 00:43:29;;;;;;;7.80;4.33;;;;;;;10.26;53.78;100602.33;1956965;91;29852;-71
2022/05/14 00:46:49;;;;;;;8.98;4.25;;;;;;;10.22;53.99;100602.53;1957108;91;31047;-71
2022/05/14 00:49:50;;;;;;;13.13;5.58;;;;;;;10.18;54.03;100596.42;1957641;91;32771;-71
2022/05/14 00:52:58;;;;;;;9.50;4.65;;;;;;;10.16;54.29;100609.03;1956903;91;29541;-71
2022/05/14 00:56:08;;;;;;;7.83;4.33;;;;;;;10.11;54.45;100609.20;1955602;91;27842;-72
2022/05/14 00:59:14;;;;;;;8.13;4.92;;;;;;;10.06;54.56;100612.56;1933970;90;30402;-72
2022/05/14 01:02:17;;;;;;;9.43;4.35;;;;;;;10.00;54.69;100615.03;1956619;91;31907;-73
2022/05/14 01:05:21;;;;;;;9.03;4.40;;;;;;;9.94;54.99;100606.37;1957062;91;33840;-70
2022/05/14 01:08:23;;;;;;;13.70;5.75;;;;;;;9.89;55.05;100611.92;1957291;91;29354;-72
2022/05/14 01:11:28;;;;;;;15.75;5.10;;;;;;;9.83;55.16;100602.34;1957345;91;27650;-73
2022/05/14 01:14:30;;;;;;;12.50;5.75;;;;;;;9.79;55.38;100602.06;1956869;91;29443;-71
2022/05/14 01:17:32;;;;;;;9.55;4.75;;;;;;;9.74;55.46;100602.74;1956452;91;31974;-71
2022/05/14 01:20:35;;;;;;;9.68;4.62;;;;;;;9.70;55.53;100605.13;1958581;89;34232;-72
2022/05/14 01:27:19;;;;;;;8.08;5.05;;;;;;;9.60;55.87;100597.95;1868277;94;27863;-71
2022/05/14 01:30:21;;;;;;;11.65;6.60;;;;;;;9.54;56.02;100596.84;1868311;95;29923;-72
2022/05/14 01:33:23;;;;;;;10.72;6.42;;;;;;;9.50;56.46;100597.93;1868020;95;32183;-71
2022/05/14 01:36:25;;;;;;;12.35;8.00;;;;;;;9.47;56.30;100590.03;1868213;95;33837;-67
2022/05/14 01:39:27;;;;;;;10.05;6.40;;;;;;;9.43;56.29;100594.16;1868160;95;29262;-72
2022/05/14 01:42:29;;;;;;;8.05;5.80;;;;;;;9.40;56.60;100588.92;1868354;95;27805;-71
2022/05/14 01:45:32;;;;;;;9.40;5.50;;;;;;;9.37;56.68;100585.03;1868279;95;29559;-72
2022/05/14 01:48:34;;;;;;;11.68;5.62;;;;;;;9.34;56.85;100589.64;1868167;95;31067;-72
2022/05/14 01:51:37;;;;;;;10.68;4.78;;;;;;;9.30;56.98;100587.56;1868222;95;32966;-73
2022/05/14 01:54:39;;;;;;;9.63;5.17;;;;;;;9.26;57.05;100584.59;1868179;95;30324;-72
2022/05/14 01:57:40;;;;;;;9.78;4.65;;;;;;;9.22;57.19;100585.20;1868175;95;27870;-73
2022/05/14 02:00:42;;;;;;;13.93;4.78;;;;;;;9.18;57.24;100582.23;1868287;95;29573;-72
2022/05/14 02:03:49;;;;;;;9.23;4.75;;;;;;;9.16;57.38;100582.75;1939702;90;31097;-72
2022/05/14 02:06:53;;;;;;;7.65;4.85;;;;;;;9.13;57.56;100586.88;1965887;90;33083;-73
2022/05/14 02:09:54;;;;;;;8.48;5.25;;;;;;;9.10;57.58;100588.36;1966309;89;31164;-74
2022/05/14 02:12:57;;;;;;;8.73;4.70;;;;;;;9.07;57.79;100580.45;1966264;89;28105;-71
2022/05/14 02:15:59;;;;;;;8.08;4.67;;;;;;;9.04;57.90;100578.75;1966309;90;29134;-72
2022/05/14 02:19:02;;;;;;;9.03;4.85;;;;;;;9.00;58.05;100578.48;1966123;90;32328;-73
2022/05/14 02:22:05;;;;;;;8.63;5.05;;;;;;;8.98;58.14;100583.02;1965618;90;33108;-73
2022/05/14 02:25:08;;;;;;;7.15;4.70;;;;;;;8.95;58.26;100577.78;1966113;89;29416;-72
2022/05/14 02:28:10;;;;;;;8.15;5.25;;;;;;;8.93;58.33;100575.18;1966245;90;27729;-71
2022/05/14 02:31:12;;;;;;;11.45;5.53;;;;;;;8.91;58.51;100576.15;1965860;89;29930;-71
2022/05/14 02:34:14;;;;;;;10.25;5.20;;;;;;;8.87;58.55;100574.06;1966044;90;31106;-72
2022/05/14 02:37:18;;;;;;;10.93;5.22;;;;;;;8.87;58.55;100577.19;1965731;90;33826;-70
2022/05/14 02:40:21;;;;;;;13.78;5.33;;;;;;;8.83;58.54;100572.91;1966011;90;30137;-71
2022/05/14 02:43:23;;;;;;;9.55;5.67;;;;;;;8.79;58.65;100576.14;1966381;90;27734;-73
2022/05/14 02:46:26;;;;;;;12.58;5.15;;;;;;;8.75;59.06;100572.72;1965787;89;28797;-70
2022/05/14 02:49:28;;;;;;;8.05;5.08;;;;;;;8.71;59.07;100568.42;1965383;90;32154;-70
2022/05/14 02:52:30;;;;;;;16.97;6.00;;;;;;;8.68;59.31;100571.68;1965993;90;33121;-69
2022/05/14 02:55:32;;;;;;;9.13;5.15;;;;;;;8.63;59.37;100567.38;1965649;90;30108;-72
2022/05/14 03:01:54;;;;;;;10.05;5.70;;;;;;;8.57;59.56;100563.61;1965595;89;29276;-71
2022/05/14 03:04:57;;;;;;;12.03;5.80;;;;;;;8.55;59.69;100561.46;1965436;89;31094;-72
2022/05/14 03:07:58;;;;;;;9.60;5.12;;;;;;;8.55;59.74;100563.24;1965472;89;33875;-72
2022/05/14 03:11:00;;;;;;;11.55;5.47;;;;;;;8.54;59.92;100567.73;1966164;89;28612;-70
2022/05/14 03:14:03;;;;;;;12.30;6.12;;;;;;;8.54;59.83;100567.73;1966137;89;27752;-74
2022/05/14 03:17:05;;;;;;;15.75;6.90;;;;;;;8.54;60.09;100568.17;1966304;90;29670;-71
2022/05/14 03:20:10;;;;;;;12.30;6.80;;;;;;;8.54;60.14;100566.84;1966077;89;31062;-72
2022/05/14 03:23:12;;;;;;;14.10;6.37;;;;;;;8.57;60.30;100573.41;1965741;90;32959;-73
2022/05/14 03:26:14;;;;;;;11.93;6.53;;;;;;;8.61;60.33;100572.37;1966243;90;30175;-74
2022/05/14 03:29:16;;;;;;;11.75;6.03;;;;;;;8.64;60.39;100570.93;1966141;90;27733;-76
2022/05/14 03:32:18;;;;;;;12.20;5.65;;;;;;;8.69;60.49;100570.75;1966192;90;28645;-73
2022/05/14 03:35:23;;;;;;;12.53;5.62;;;;;;;8.74;60.59;100572.31;1966096;89;31057;-72
2022/05/14 03:38:25;;;;;;;;;;;;;;;8.81;60.61;100564.49;1968068;90;34266;-69
2022/05/14 03:41:28;;;;;;;9.85;5.95;;;;;;;8.88;60.92;100566.46;1965992;90;29478;-65
2022/05/14 03:44:30;;;;;;;11.12;5.67;;;;;;;8.95;60.76;100568.42;1966061;90;27876;-72
2022/05/14 03:47:32;;;;;;;9.35;5.28;;;;;;;9.04;60.90;100561.86;1966081;90;28153;-67
2022/05/14 03:50:34;;;;;;;13.03;6.20;;;;;;;9.14;61.01;100563.70;1966054;90;31436;-72
2022/05/14 03:53:37;;;;;;;9.25;5.30;;;;;;;9.24;61.21;100567.30;1966035;90;33771;-72
2022/05/14 03:56:40;;;;;;;10.23;4.97;;;;;;;9.35;61.18;100568.17;1966071;90;29341;-69
2022/05/14 03:59:42;;;;;;;7.97;5.33;;;;;;;9.47;61.24;100572.16;1965873;90;28095;-67
2022/05/14 04:02:44;;;;;;;15.03;5.62;;;;;;;9.58;61.13;100581.09;1966149;89;29438;-72
2022/05/14 04:05:47;;;;;;;8.28;5.45;;;;;;;9.70;61.26;100577.05;1966159;90;31659;-71
2022/05/14 04:08:49;;;;;;;14.68;5.58;;;;;;;9.84;61.24;100576.48;1966128;89;32476;-71
2022/05/14 04:11:52;;;;;;;11.45;5.53;;;;;;;9.97;61.25;100576.80;1966087;90;30485;-69
2022/05/14 04:14:54;;;;;;;10.45;6.25;;;;;;;10.11;61.10;100584.25;1965824;90;27764;-69
2022/05/14 04:17:56;;;;;;;10.65;4.95;;;;;;;10.26;61.13;100577.38;1965753;90;29572;-74
2022/05/14 04:21:00;;;;;;;12.78;6.00;;;;;;;10.42;61.24;100572.22;1965821;89;32256;-75
2022/05/14 04:24:02;;;;;;;8.73;4.47;;;;;;;10.60;61.21;100573.19;1966077;89;33026;-74
2022/05/14 04:27:05;;;;;;;7.85;4.62;;;;;;;10.79;61.12;100578.59;1965784;89;29561;-69
2022/05/14 04:30:09;;;;;;;8.03;4.60;;;;;;;11.00;61.06;100574.04;1965746;90;27662;-68
2022/05/14 04:33:12;;;;;;;10.63;4.58;;;;;;;11.23;60.99;100573.43;1965992;90;29585;-71
2022/05/14 04:36:14;;;;;;;11.28;4.50;;;;;;;11.48;60.83;100570.42;1966165;89;31095;-70
2022/05/14 04:39:17;;;;;;;13.18;4.78;;;;;;;11.75;60.66;100569.13;1965764;90;33761;-68
2022/05/14 04:42:19;;;;;;;9.55;4.28;;;;;;;12.14;60.40;100570.28;1965858;90;30036;-71
2022/05/14 04:45:21;;;;;;;9.70;3.55;;;;;;;12.92;60.23;100562.98;1965961;89;27795;-69
2022/05/14 04:48:23;;;;;;;8.13;3.70;;;;;;;14.00;59.66;100555.10;1966356;90;29424;-71
2022/05/14 04:51:25;;;;;;;10.13;3.77;;;;;;;15.09;58.43;100551.12;1965817;90;31843;-70
2022/05/14 04:54:27;;;;;;;6.87;3.27;;;;;;;16.16;57.21;100544.06;1966422;90;33197;-71
2022/05/14 04:57:29;;;;;;;7.40;3.20;;;;;;;18.25;54.67;100514.42;1966421;90;30426;-70
2022/05/14 05:00:31;;;;;;;9.88;3.90;;;;;;;18.25;54.67;100514.42;1966559;90;27711;-67
2022/05/14 05:03:33;;;;;;;7.45;3.17;;;;;;;19.41;53.19;100526.34;1966197;90;28535;-74
2022/05/14 05:06:35;;;;;;;10.35;3.35;;;;;;;20.36;51.60;100531.94;1965807;89;32305;-71
2022/05/14 05:09:38;;;;;;;7.70;2.72;;;;;;;21.28;50.04;100532.92;1965833;90;33030;-72
2022/05/14 05:12:40;;;;;;;5.15;2.22;;;;;;;22.11;48.65;100530.31;1967042;90;29356;-65
2022/05/14 05:15:43;;;;;;;4.87;3.05;;;;;;;22.86;47.51;100532.28;1967523;90;27691;-65
2022/05/14 05:18:45;;;;;;;9.13;2.70;;;;;;;23.54;46.26;100535.64;1967407;90;29223;-64
2022/05/14 05:21:49;;;;;;;11.05;2.85;;;;;;;24.12;45.01;100537.92;1969386;90;30952;-64
2022/05/14 05:24:52;;;;;;;6.03;2.80;;;;;;;24.70;44.02;100541.58;1979492;90;32731;-64
2022/05/14 05:27:54;;;;;;;6.92;2.37;;;;;;;25.18;42.75;100540.57;1979170;90;30063;-64
2022/05/14 05:30:57;;;;;;;6.08;2.42;;;;;;;25.51;41.59;100554.94;1978973;90;27694;-64
2022/05/14 05:34:03;;;;;;;11.22;3.62;;;;;;;25.13;40.63;100555.31;1979206;90;29063;-64
2022/05/14 05:37:05;;;;;;;9.20;3.15;;;;;;;24.71;40.16;100553.73;1978572;90;31873;-65
2022/05/14 05:40:09;;;;;;;6.28;2.27;;;;;;;24.28;40.05;100557.70;1977446;90;33679;-66
2022/05/14 05:43:12;;;;;;;7.53;2.52;;;;;;;24.36;39.70;100555.53;1978437;90;30151;-71
2022/05/14 05:46:16;;;;;;;7.60;2.42;;;;;;;24.41;39.23;100551.81;1978156;90;27661;-69
2022/05/14 05:49:19;;;;;;;8.58;2.98;;;;;;;24.49;38.71;100551.00;1977926;90;28677;-64
2022/05/14 05:52:22;;;;;;;4.90;2.10;;;;;;;24.71;38.27;100557.00;1975802;90;31146;-72
2022/05/14 05:58:45;;;;;;;8.43;3.10;;;;;;;25.42;37.12;100554.05;1975278;89;30524;-68
2022/05/14 06:01:47;;;;;;;6.72;2.42;;;;;;;25.71;36.41;100561.84;1975576;90;27729;-73
2022/05/14 06:04:50;;;;;;;7.22;2.75;;;;;;;26.05;36.12;100563.58;1975475;89;29609;-65
2022/05/14 06:07:52;;;;;;;8.25;2.45;;;;;;;26.37;35.36;100560.50;1975495;90;31687;-71
2022/05/14 06:10:54;;;;;;;8.58;2.08;;;;;;;26.42;35.05;100567.34;1975534;90;33075;-69
2022/05/14 06:13:57;;;;;;;9.28;2.80;;;;;;;26.17;34.23;100563.26;1975296;90;30632;-69
2022/05/14 06:17:08;;;;;;;7.42;2.12;;;;;;;25.78;33.99;100560.11;1975510;89;27650;-70
2022/05/14 06:20:07;;;;;;;6.50;2.10;;;;;;;25.38;34.07;100562.23;1973380;89;29502;-72
2022/05/14 06:23:10;;;;;;;10.20;2.75;;;;;;;25.10;34.13;100566.60;1958650;89;31101;-69
2022/05/14 06:26:28;;;;;;;5.72;2.35;;;;;;;24.95;34.29;100567.72;1940464;91;34245;-75
2022/05/14 06:29:42;;;;;;;4.95;2.15;;;;;;;24.65;33.85;100569.44;1940761;91;29432;-77
2022/05/14 06:32:58;;;;;;;4.00;2.10;;;;;;;24.55;34.46;100566.80;1940773;91;27763;-75
2022/05/14 06:36:18;;;;;;;8.23;2.62;;;;;;;24.46;34.10;100566.91;1940932;91;29431;-75
2022/05/14 06:39:27;;;;;;;4.22;2.42;;;;;;;24.48;34.37;100571.72;1940428;91;31680;-72
2022/05/14 06:42:34;;;;;;;3.77;2.02;;;;;;;24.98;34.15;100572.39;1940711;91;32986;-74
2022/05/14 06:45:49;;;;;;;6.42;2.27;;;;;;;25.21;33.99;100563.55;1940576;91;29402;-74
2022/05/14 06:48:52;;;;;;;6.83;2.30;;;;;;;25.80;33.36;100561.34;1940941;91;27702;-74
2022/05/14 06:51:56;;;;;;;3.95;2.12;;;;;;;25.43;33.32;100555.24;1940443;91;29995;-73
2022/05/14 06:54:59;;;;;;;4.28;2.00;;;;;;;25.73;33.41;100554.80;1940851;91;31074;-74
2022/05/14 06:58:05;;;;;;;6.10;2.00;;;;;;;26.44;33.39;100548.30;1940673;91;33810;-76
2022/05/14 07:01:11;;;;;;;3.70;1.55;;;;;;;27.29;33.26;100542.69;1940505;91;30739;-76
2022/05/14 07:07:37;;;;;;;4.30;2.33;;;;;;;28.81;31.41;100538.87;1940878;91;29560;-76
2022/05/14 07:10:40;;;;;;;9.25;3.15;;;;;;;29.37;30.63;100533.36;1940480;91;31124;-75
2022/05/14 07:13:42;;;;;;;4.80;2.42;;;;;;;29.70;30.36;100532.33;1940679;91;33831;-74
2022/05/14 07:16:47;;;;;;;11.00;3.72;;;;;;;30.06;30.08;100531.09;1940535;91;29440;-74
2022/05/14 07:19:50;;;;;;;8.18;3.67;;;;;;;30.43;29.48;100534.06;1940796;91;27639;-75
2022/05/14 07:22:52;;;;;;;4.65;2.47;;;;;;;30.72;29.05;100530.77;1949261;89;28707;-74
2022/05/14 07:26:05;;;;;;;6.35;2.37;;;;;;;30.92;28.47;100525.88;1975220;90;31669;-74
2022/05/14 07:29:12;;;;;;;8.53;2.87;;;;;;;31.11;27.86;100523.40;1975091;88;33017;-73
2022/05/14 07:32:19;;;;;;;7.42;2.60;;;;;;;31.18;27.35;100525.16;1952634;90;30215;-74
2022/05/14 07:35:22;;;;;;;8.58;2.83;;;;;;;31.27;26.99;100516.14;1975473;89;27733;-72
2022/05/14 07:38:24;;;;;;;7.92;2.45;;;;;;;31.61;27.15;100523.98;1974968;89;29914;-74
2022/05/14 07:41:27;;;;;;;5.10;2.60;;;;;;;31.88;25.89;100506.56;1975308;90;30857;-75
2022/05/14 07:44:34;;;;;;;11.03;3.47;;;;;;;32.19;25.63;100516.15;1975353;89;34207;-73
2022/05/14 07:47:37;;;;;;;11.10;2.98;;;;;;;32.41;24.99;100512.11;1975259;90;29348;-73
2022/05/14 07:50:39;;;;;;;5.35;2.30;;;;;;;32.47;24.97;100505.40;1953265;90;27764;-74
2022/05/14 07:53:42;;;;;;;5.25;2.95;;;;;;;32.44;24.32;100501.11;1975480;89;28670;-72
2022/05/14 07:56:44;;;;;;;6.67;2.50;;;;;;;32.12;24.38;100500.40;1975566;90;31876;-73
2022/05/14 07:59:46;;;;;;;10.18;2.87;;;;;;;32.01;24.06;100505.20;1975086;90;33419;-74
2022/05/14 08:02:49;;;;;;;7.87;2.75;;;;;;;32.09;24.15;100516.61;1975049;90;30205;-71
2022/05/14 08:05:52;;;;;;;9.15;2.58;;;;;;;32.33;23.91;100508.72;1975419;90;27737;-71
2022/05/14 08:08:55;;;;;;;8.68;2.80;;;;;;;32.57;23.95;100506.66;1975169;90;29140;-72
2022/05/14 08:11:59;;;;;;;13.85;3.37;;;;;;;32.51;23.57;100511.67;1975510;89;31918;-73
2022/05/14 08:15:00;;;;;;;9.43;2.72;;;;;;;32.00;23.35;100509.05;1975455;90;33680;-74
2022/05/14 08:18:05;;;;;;;7.75;3.15;;;;;;;31.65;23.23;100507.27;1975367;90;30470;-75
2022/05/14 08:24:38;;;;;;;9.03;3.62;;;;;;;31.51;23.68;100505.54;1972899;89;29871;-73
2022/05/14 08:27:44;;;;;;;11.57;3.67;;;;;;;31.47;23.11;100507.89;1971044;90;31292;-74
2022/05/14 08:30:40;;;;;;;9.38;3.65;;;;;;;31.24;22.88;100508.77;1970995;90;33906;-74
2022/05/14 08:33:42;;;;;;;7.97;2.98;;;;;;;31.04;23.17;100499.31;1972218;90;30470;-72
2022/05/14 08:36:45;;;;;;;4.85;3.00;;;;;;;31.14;23.33;100495.31;1972040;90;27704;-71
2022/05/14 08:39:48;;;;;;;8.83;3.67;;;;;;;31.16;23.49;100500.98;1972356;90;28660;-73
2022/05/14 08:42:53;;;;;;;8.18;3.40;;;;;;;30.77;22.97;100491.42;1971804;89;31941;-73
2022/05/14 08:45:55;;;;;;;9.58;3.02;;;;;;;30.24;23.41;100491.38;1972392;89;33567;-75
2022/05/14 08:49:02;;;;;;;5.62;2.90;;;;;;;30.19;23.72;100490.29;1971770;89;30672;-75
2022/05/14 08:52:13;;;;;;;7.62;3.65;;;;;;;30.10;23.74;100485.44;1971914;90;27703;-70
2022/05/14 08:55:18;;;;;;;9.63;3.47;;;;;;;29.73;23.77;100488.80;1972012;90;29560;-75
2022/05/14 08:58:48;;;;;;;8.40;3.65;;;;;;;29.35;23.85;100495.44;1972177;90;31838;-74
2022/05/14 09:01:51;;;;;;;10.58;3.40;;;;;;;29.21;24.00;100491.13;1966761;90;32988;-73
2022/05/14 09:05:13;;;;;;;7.17;3.80;;;;;;;28.83;24.37;100495.42;1972176;89;30109;-74
2022/05/14 09:08:16;;;;;;;11.10;3.67;;;;;;;28.57;24.45;100491.23;1971897;89;27705;-73
2022/05/14 09:11:44;;;;;;;7.97;3.25;;;;;;;28.38;24.60;100495.39;1972132;90;29278;-74
2022/05/14 09:14:49;;;;;;;8.38;3.95;;;;;;;28.12;24.80;100493.11;1972173;89;32407;-75
2022/05/14 09:18:02;;;;;;;;;;;;;;;27.88;24.88;100490.34;1950544;90;32908;-72
2022/05/14 09:21:07;;;;;;;10.60;4.00;;;;;;;27.60;24.98;100496.42;1972602;90;29190;-69
2022/05/14 09:24:28;;;;;;;8.50;4.05;;;;;;;27.12;25.29;100497.05;1949363;90;27704;-72
2022/05/14 09:27:57;;;;;;;10.15;4.17;;;;;;;26.87;25.67;100503.19;1970476;90;29627;-74
2022/05/14 09:31:00;;;;;;;7.80;4.20;;;;;;;26.85;25.94;100491.00;1971625;90;31932;-71
2022/05/14 09:34:13;;;;;;;9.18;4.42;;;;;;;26.82;26.00;100489.98;1972073;90;33578;-70
2022/05/14 09:37:23;;;;;;;11.43;4.20;;;;;;;26.57;26.05;100496.05;1972447;89;29434;-74
2022/05/14 09:40:29;;;;;;;8.40;3.95;;;;;;;26.30;26.44;100485.84;1972389;90;27749;-72
2022/05/14 09:43:35;;;;;;;9.73;3.80;;;;;;;26.20;26.65;100498.38;1972271;89;28838;-73
2022/05/14 09:46:41;;;;;;;11.28;4.85;;;;;;;26.06;26.90;100493.88;1972389;89;32367;-70
2022/05/14 09:50:03;;;;;;;10.30;4.53;;;;;;;25.82;26.86;100485.15;1972455;90;33937;-65
2022/05/14 09:53:05;;;;;;;13.80;4.50;;;;;;;25.58;27.32;100488.24;1971505;90;29124;-69
2022/05/14 09:56:15;;;;;;;9.28;4.12;;;;;;;25.45;27.67;100493.38;1972441;89;28123;-69
2022/05/14 09:59:48;;;;;;;9.33;4.03;;;;;;;25.51;28.08;100489.09;1972016;89;29711;-66
2022/05/14 10:03:06;;;;;;;5.97;3.33;;;;;;;25.55;28.27;100477.61;1971208;89;31960;-70
2022/05/14 10:06:49;;;;;;;7.62;4.10;;;;;;;25.67;28.67;100485.48;1962253;90;34147;-69
2022/05/14 10:10:14;;;;;;;4.80;3.25;;;;;;;25.85;28.17;100486.71;1972365;90;29414;-69
2022/05/14 10:13:52;;;;;;;10.13;3.55;;;;;;;25.93;28.01;100469.72;1972317;90;28014;-73
2022/05/14 10:17:36;;;;;;;8.13;3.30;;;;;;;26.01;27.78;100471.60;1972187;90;29880;-72
2022/05/14 10:28:36;;;;;;;7.50;3.95;;;;;;;26.12;28.44;100467.67;1912577;93;29433;-71
2022/05/14 10:32:01;;;;;;;7.37;3.60;;;;;;;26.29;28.23;100474.51;1866363;95;27973;-72
2022/05/14 10:35:34;;;;;;;10.35;3.98;;;;;;;26.23;27.96;100472.79;1866591;95;28674;-74
2022/05/14 10:38:53;;;;;;;6.20;3.25;;;;;;;26.01;28.14;100478.96;1866422;94;31530;-73
2022/05/14 10:42:16;;;;;;;12.85;3.98;;;;;;;25.95;28.41;100476.40;1857855;95;33693;-74
2022/05/14 10:45:34;;;;;;;9.10;4.28;;;;;;;26.05;28.61;100480.34;1860613;95;30070;-74
2022/05/14 10:48:53;;;;;;;6.50;3.10;;;;;;;26.05;28.25;100463.86;1866112;95;27889;-74
2022/05/14 10:51:55;;;;;;;7.53;4.00;;;;;;;26.16;28.62;100459.94;1865796;95;29518;-72
2022/05/14 10:55:04;;;;;;;6.50;4.78;;;;;;;26.19;28.20;100467.30;1866106;95;31086;-72
2022/05/14 10:58:07;;;;;;;12.33;3.90;;;;;;;26.15;28.00;100469.20;1866290;95;33004;-75
2022/05/14 11:01:30;;;;;;;8.08;3.17;;;;;;;25.98;27.84;100466.98;1865870;95;29344;-72
2022/05/14 11:04:47;;;;;;;8.70;3.00;;;;;;;25.74;28.16;100464.58;1876925;92;27920;-71
2022/05/14 11:07:51;;;;;;;9.98;3.62;;;;;;;25.57;28.25;100468.70;1934590;91;27829;-72
2022/05/14 11:11:30;;;;;;;5.67;2.98;;;;;;;25.48;28.28;100465.09;1895008;93;32309;-74
2022/05/14 11:14:43;;;;;;;6.28;2.67;;;;;;;25.62;28.72;100459.45;1914353;93;33706;-74
2022/05/14 11:17:45;;;;;;;5.60;3.33;;;;;;;25.84;28.62;100463.04;1914251;93;29358;-77
2022/05/14 11:21:03;;;;;;;12.95;3.33;;;;;;;25.94;28.09;100459.09;1925960;91;27707;-74
2022/05/14 11:24:11;;;;;;;5.83;2.98;;;;;;;25.95;28.12;100465.42;1938324;88;27789;-72
2022/05/14 11:27:14;;;;;;;8.38;3.40;;;;;;;25.97;28.32;100461.98;1965759;88;31831;-72
2022/05/14 11:30:17;;;;;;;11.97;3.17;;;;;;;25.98;28.40;100460.13;1942602;90;33400;-72
2022/05/14 11:33:31;;;;;;;6.83;3.07;;;;;;;25.99;28.11;100465.92;1921572;90;29351;-71
2022/05/14 11:36:38;;;;;;;8.83;3.55;;;;;;;25.83;27.99;100468.19;1966744;90;27845;-73
2022/05/14 11:39:40;;;;;;;10.95;3.47;;;;;;;25.57;28.27;100450.86;1964660;89;28664;-74
2022/05/14 11:42:45;;;;;;;6.37;2.80;;;;;;;25.44;28.15;100443.13;1966130;89;31854;-71
2022/05/14 11:46:11;;;;;;;7.15;2.95;;;;;;;25.41;28.59;100449.45;1965880;90;30484;-72
2022/05/14 11:49:33;;;;;;;4.53;3.07;;;;;;;25.37;28.51;100445.32;1966485;90;30223;-72
2022/05/14 11:53:05;;;;;;;7.92;3.27;;;;;;;25.28;28.72;100449.94;1966320;90;27755;-73
2022/05/14 11:56:51;;;;;;;12.10;3.80;;;;;;;25.06;28.77;100451.44;1965967;89;29527;-73
2022/05/14 12:00:08;;;;;;;;;;;;;;;24.84;28.71;100453.77;1968451;90;30843;-72
2022/05/14 12:03:24;;;;;;;7.40;3.10;;;;;;;24.67;28.92;100456.94;1965948;89;32961;-73
2022/05/14 12:06:38;;;;;;;6.40;2.60;;;;;;;24.61;29.19;100447.50;1964540;89;29178;-73
2022/05/14 12:10:08;;;;;;;6.80;3.08;;;;;;;24.66;29.42;100445.62;1965743;89;27714;-76
2022/05/14 12:13:30;;;;;;;7.58;2.65;;;;;;;24.61;29.03;100444.77;1896453;92;28965;-72
2022/05/14 12:16:39;;;;;;;13.90;3.33;;;;;;;24.62;29.51;100449.72;1872250;95;31131;-71
2022/05/14 12:19:44;;;;;;;5.62;2.87;;;;;;;24.69;29.36;100447.52;1872582;95;33057;-72
2022/05/14 12:22:59;;;;;;;8.40;3.12;;;;;;;24.69;29.22;100450.78;1872554;95;29382;-74
2022/05/14 12:26:05;;;;;;;8.53;3.27;;;;;;;24.66;29.48;100447.00;1872432;94;27904;-68
2022/05/14 12:29:18;;;;;;;9.85;3.75;;;;;;;24.60;29.40;100441.67;1872723;95;29524;-68
2022/05/14 12:35:56;;;;;;;9.83;3.50;;;;;;;24.46;29.57;100451.88;1872502;95;33081;-73
2022/05/14 12:39:02;;;;;;;5.22;2.65;;;;;;;24.40;29.67;100446.55;1872628;95;30305;-73
2022/05/14 12:42:09;;;;;;;8.73;3.17;;;;;;;24.40;29.66;100446.55;1872624;95;27776;-75
2022/05/14 12:45:12;;;;;;;11.57;3.08;;;;;;;24.52;30.03;100442.98;1872455;95;28667;-74
2022/05/14 12:48:15;;;;;;;7.57;3.00;;;;;;;24.65;29.86;100437.94;1872544;95;31809;-71
2022/05/14 12:51:24;;;;;;;8.15;3.55;;;;;;;24.79;29.49;100426.02;1903562;93;33874;-73
2022/05/14 12:54:31;;;;;;;13.45;3.65;;;;;;;24.94;29.18;100427.09;1972232;90;29403;-72
2022/05/14 12:57:35;;;;;;;10.08;2.70;;;;;;;25.02;29.23;100435.32;1971825;89;27666;-71
2022/05/14 13:00:39;;;;;;;6.70;3.25;;;;;;;25.03;29.02;100439.78;1971654;90;28731;-70
2022/05/14 13:03:49;;;;;;;5.90;2.95;;;;;;;25.05;29.26;100423.69;1972018;90;32502;-71
2022/05/14 13:06:51;;;;;;;8.45;3.58;;;;;;;25.16;29.03;100425.59;1960602;90;33986;-67
2022/05/14 13:09:53;;;;;;;7.85;3.45;;;;;;;25.16;28.67;100424.22;1968085;90;29327;-70
2022/05/14 13:12:59;;;;;;;7.72;2.83;;;;;;;25.11;28.54;100433.45;1950196;90;27677;-72
2022/05/14 13:16:03;;;;;;;6.47;2.50;;;;;;;24.98;28.53;100433.09;1941336;91;28664;-70
2022/05/14 13:19:19;;;;;;;8.05;2.70;;;;;;;24.83;28.46;100435.11;1902906;93;31223;-69
2022/05/14 13:22:41;;;;;;;10.88;3.17;;;;;;;24.73;28.58;100434.41;1877317;93;33084;-69
2022/05/14 13:25:44;;;;;;;7.05;2.83;;;;;;;24.71;28.71;100431.81;1875580;93;29477;-70
2022/05/14 13:28:46;;;;;;;7.03;2.65;;;;;;;24.68;28.45;100422.52;1958075;90;27995;-69
2022/05/14 13:31:51;;;;;;;5.92;3.20;;;;;;;24.70;28.76;100424.61;1935534;91;29899;-68
2022/05/14 13:38:14;;;;;;;7.78;3.30;;;;;;;24.90;28.75;100412.00;1957737;90;33975;-68
2022/05/14 13:41:24;;;;;;;8.33;2.72;;;;;;;25.09;28.86;100401.23;1956481;90;28865;-70
2022/05/14 13:44:27;;;;;;;6.15;3.12;;;;;;;25.15;28.31;100407.95;1957724;90;27746;-70
2022/05/14 13:47:29;;;;;;;10.53;2.98;;;;;;;25.16;28.55;100409.64;1957836;90;28848;-75
2022/05/14 13:50:43;;;;;;;8.68;3.40;;;;;;;25.18;28.31;100396.13;1957859;90;31211;-73
2022/05/14 13:53:51;;;;;;;7.03;2.70;;;;;;;25.22;28.22;100395.27;1957847;90;33039;-73
2022/05/14 13:57:08;;;;;;;10.55;2.85;;;;;;;25.28;28.46;100397.34;1957885;90;30238;-72
2022/05/14 14:00:20;;;;;;;7.30;2.45;;;;;;;25.35;27.96;100397.51;1926292;92;27681;-72
2022/05/14 14:03:33;;;;;;;12.88;2.70;;;;;;;25.36;27.93;100392.87;1926178;92;28736;-70
2022/05/14 14:06:36;;;;;;;6.47;2.80;;;;;;;25.43;27.87;100393.94;1917877;92;30952;-71
2022/05/14 14:09:40;;;;;;;20.02;3.65;;;;;;;25.59;28.18;100391.19;1926244;92;33136;-71
2022/05/14 14:12:43;;;;;;;83.30;8.63;;;;;;;25.71;27.82;100386.72;1926465;92;29472;-70
2022/05/14 14:15:45;;;;;;;8.10;2.72;;;;;;;25.76;27.66;100385.16;1926505;92;28242;-71
2022/05/14 14:18:48;;;;;;;4.92;2.50;;;;;;;25.84;27.70;100386.19;1926040;92;29910;-71
2022/05/14 14:21:50;;;;;;;14.23;2.62;;;;;;;25.92;27.79;100382.91;1926048;92;31918;-70
2022/05/14 14:24:54;;;;;;;8.78;2.58;;;;;;;25.99;27.75;100393.17;1923198;91;33049;-72
2022/05/14 14:27:56;;;;;;;5.97;2.65;;;;;;;25.97;27.36;100383.75;1902004;93;29377;-68
2022/05/14 14:31:03;;;;;;;5.12;2.55;;;;;;;25.83;27.32;100385.31;1902279;93;27838;-72
2022/05/14 16:06:42;;;;;;;10.43;3.30;;;;;;;22.64;30.63;100374.62;2381983;74;27714;-70
2022/05/14 16:16:25;;;;;;;40.92;4.00;;;;;;;22.51;30.86;100380.44;2313259;77;32491;-69
2022/05/14 16:19:28;;;;;;;20.40;3.12;;;;;;;22.50;30.81;100381.97;2312644;77;32832;-69
2022/05/14 16:22:30;;;;;;;11.90;2.67;;;;;;;22.49;30.99;100381.61;2313627;77;28400;-69
2022/05/14 16:25:33;;;;;;;9.60;2.77;;;;;;;22.49;31.09;100384.34;2313212;77;27706;-70
2022/05/14 16:28:35;;;;;;;14.85;3.17;;;;;;;22.44;31.13;100388.38;2313518;77;29839;-70
2022/05/14 16:31:37;;;;;;;15.32;3.17;;;;;;;22.42;31.28;100382.72;2313223;77;30992;-69
2022/05/14 16:34:39;;;;;;;11.57;2.77;;;;;;;22.40;31.29;100391.53;2313131;77;32970;-69
2022/05/14 16:37:41;;;;;;;9.43;2.40;;;;;;;22.36;31.41;100391.47;2313369;77;29639;-69
2022/05/14 16:40:43;;;;;;;13.13;2.92;;;;;;;22.33;31.53;100394.53;2313756;77;27630;-70